createdAt,value
2018-03-26T00:02:29.239Z,26.60
2018-03-26T00:05:01.467Z,25.93
2018-03-26T00:07:32.661Z,25.70
2018-03-26T00:10:04.135Z,26.27
2018-03-26T00:12:35.483Z,25.00
2018-03-26T00:15:06.724Z,24.73
2018-03-26T00:17:38.244Z,25.40
2018-03-26T00:20:10.232Z,24.90
2018-03-26T00:22:41.491Z,24.37
2018-03-26T00:25:12.758Z,24.83
2018-03-26T00:27:44.007Z,25.83
2018-03-26T00:30:15.424Z,23.27
2018-03-26T00:32:46.752Z,25.70
2018-03-26T00:35:17.990Z,23.70
2018-03-26T00:37:49.243Z,23.20
2018-03-26T00:40:20.576Z,24.10
2018-03-26T00:42:52.661Z,23.57
2018-03-26T00:45:23.955Z,22.73
2018-03-26T00:47:55.199Z,23.60
2018-03-26T00:50:26.607Z,23.37
2018-03-26T00:52:57.902Z,22.30
2018-03-26T00:55:29.151Z,23.30
2018-03-26T00:58:00.453Z,22.23
2018-03-26T01:00:31.695Z,21.97
2018-03-26T01:03:10.884Z,22.73
2018-03-26T01:05:42.907Z,22.77
2018-03-26T01:08:14.135Z,21.93
2018-03-26T01:10:45.411Z,21.37
2018-03-26T01:13:16.931Z,21.73
2018-03-26T01:15:48.212Z,20.47
2018-03-26T01:18:19.695Z,22.10
2018-03-26T01:20:50.985Z,20.87
2018-03-26T01:23:22.426Z,21.50
2018-03-26T01:25:53.685Z,20.63
2018-03-26T01:28:24.942Z,21.80
2018-03-26T01:30:56.195Z,21.47
2018-03-26T01:33:27.576Z,21.30
2018-03-26T01:35:58.843Z,21.57
2018-03-26T01:38:30.056Z,22.53
2018-03-26T01:41:01.382Z,22.77
2018-03-26T01:43:33.516Z,21.87
2018-03-26T01:46:05.214Z,23.73
2018-03-26T01:48:36.457Z,21.50
2018-03-26T01:51:07.736Z,22.87
2018-03-26T01:53:39.055Z,22.53
2018-03-26T01:56:10.300Z,22.33
2018-03-26T01:58:42.290Z,22.10
2018-03-26T02:01:13.535Z,21.77
2018-03-26T02:03:44.822Z,23.30
2018-03-26T02:06:16.146Z,21.93
2018-03-26T02:08:47.324Z,22.87
2018-03-26T02:11:19.308Z,22.37
2018-03-26T02:13:50.620Z,22.27
2018-03-26T02:16:22.607Z,23.70
2018-03-26T02:18:53.922Z,23.43
2018-03-26T02:21:25.174Z,21.03
2018-03-26T02:23:57.343Z,22.60
2018-03-26T02:26:28.605Z,22.50
2018-03-26T02:29:01.110Z,22.87
2018-03-26T02:31:32.322Z,22.87
2018-03-26T02:34:03.655Z,22.67
2018-03-26T02:36:35.680Z,22.60
2018-03-26T02:39:07.267Z,23.17
2018-03-26T02:41:39.265Z,22.37
2018-03-26T02:44:10.594Z,24.57
2018-03-26T02:46:42.000Z,22.93
2018-03-26T02:49:13.293Z,23.37
2018-03-26T02:51:44.870Z,21.50
2018-03-26T02:54:16.176Z,23.43
2018-03-26T02:56:48.143Z,22.37
2018-03-26T02:59:20.473Z,22.67
2018-03-26T03:01:51.727Z,23.63
2018-03-26T03:04:22.967Z,23.63
2018-03-26T03:06:54.963Z,23.27
2018-03-26T03:09:27.042Z,22.67
2018-03-26T03:11:58.318Z,24.13
2018-03-26T03:14:29.627Z,23.70
2018-03-26T03:17:01.613Z,24.63
2018-03-26T03:19:32.952Z,22.93
2018-03-26T03:22:04.252Z,24.20
2018-03-26T03:24:35.904Z,24.10
2018-03-26T03:27:07.155Z,24.90
2018-03-26T03:29:38.399Z,24.47
2018-03-26T03:32:09.668Z,23.57
2018-03-26T03:34:41.035Z,24.53
2018-03-26T03:37:12.283Z,23.50
2018-03-26T03:39:43.629Z,24.77
2018-03-26T03:42:14.962Z,25.70
2018-03-26T03:44:47.171Z,25.10
2018-03-26T03:47:18.543Z,24.10
2018-03-26T03:49:49.837Z,22.90
2018-03-26T03:52:21.098Z,25.77
2018-03-26T03:54:52.542Z,23.37
2018-03-26T03:57:23.879Z,24.00
2018-03-26T03:59:55.497Z,24.63
2018-03-26T04:02:27.494Z,24.33
2018-03-26T04:04:58.752Z,24.93
2018-03-26T04:07:30.027Z,25.50
2018-03-26T04:10:01.252Z,24.80
2018-03-26T04:12:32.496Z,25.27
2018-03-26T04:15:03.790Z,24.67
2018-03-26T04:17:35.775Z,26.17
2018-03-26T04:20:07.039Z,24.03
2018-03-26T04:22:38.327Z,25.13
2018-03-26T04:25:09.575Z,25.40
2018-03-26T04:27:40.886Z,24.70
2018-03-26T04:30:12.136Z,24.27
2018-03-26T04:32:43.473Z,25.67
2018-03-26T04:35:14.811Z,25.17
2018-03-26T04:37:46.160Z,26.20
2018-03-26T04:40:17.373Z,25.57
2018-03-26T04:42:48.663Z,26.03
2018-03-26T04:45:19.995Z,26.60
2018-03-26T04:47:51.223Z,24.87
2018-03-26T04:50:22.511Z,24.70
2018-03-26T04:52:53.785Z,24.33
2018-03-26T04:55:25.889Z,25.43
2018-03-26T04:57:57.177Z,24.50
2018-03-26T05:00:29.168Z,27.03
2018-03-26T05:03:01.151Z,27.67
2018-03-26T05:05:32.428Z,24.97
2018-03-26T05:08:03.680Z,23.80
2018-03-26T05:10:35.040Z,24.63
2018-03-26T05:13:07.085Z,25.67
2018-03-26T05:15:40.195Z,24.90
2018-03-26T05:18:12.303Z,27.40
2018-03-26T05:20:43.580Z,25.47
2018-03-26T05:23:14.871Z,26.37
2018-03-26T05:25:46.171Z,26.00
2018-03-26T05:28:17.458Z,25.47
2018-03-26T05:30:49.499Z,25.40
2018-03-26T05:33:20.859Z,24.80
2018-03-26T05:35:52.250Z,26.73
2018-03-26T05:38:23.503Z,26.00
2018-03-26T05:40:54.811Z,26.33
2018-03-26T05:43:26.092Z,26.13
2018-03-26T05:45:57.349Z,26.17
2018-03-26T05:48:28.704Z,26.23
2018-03-26T05:51:00.079Z,25.00
2018-03-26T05:53:31.340Z,23.93
2018-03-26T05:56:03.526Z,26.07
2018-03-26T05:58:34.855Z,25.97
2018-03-26T06:01:06.609Z,25.23
2018-03-26T06:03:38.163Z,25.50
2018-03-26T06:06:09.453Z,25.87
2018-03-26T06:08:40.939Z,26.20
2018-03-26T06:11:12.230Z,25.43
2018-03-26T06:13:43.538Z,26.27
2018-03-26T06:16:14.980Z,25.00
2018-03-26T06:18:46.191Z,26.60
2018-03-26T06:21:17.637Z,26.50
2018-03-26T06:23:49.089Z,27.33
2018-03-26T06:26:20.500Z,26.50
2018-03-26T06:28:51.872Z,26.30
2018-03-26T06:31:23.249Z,26.17
2018-03-26T06:33:54.750Z,24.60
2018-03-26T06:36:41.866Z,27.00
2018-03-26T06:39:19.284Z,25.43
2018-03-26T06:41:50.606Z,25.63
2018-03-26T06:44:21.852Z,25.10
2018-03-26T06:46:53.294Z,23.80
2018-03-26T06:49:25.361Z,21.93
2018-03-26T06:51:56.591Z,25.77
2018-03-26T06:54:28.531Z,24.93
2018-03-26T06:56:59.975Z,24.10
2018-03-26T06:59:31.264Z,24.10
2018-03-26T07:02:02.544Z,22.93
2018-03-26T07:04:33.863Z,24.10
2018-03-26T07:07:05.186Z,24.53
2018-03-26T07:09:36.444Z,23.67
2018-03-26T07:12:07.769Z,24.07
2018-03-26T07:14:39.474Z,24.63
2018-03-26T07:17:10.840Z,25.43
2018-03-26T07:19:42.137Z,25.30
2018-03-26T07:22:13.468Z,25.53
2018-03-26T07:24:44.706Z,24.60
2018-03-26T07:27:16.730Z,25.37
2018-03-26T07:29:48.277Z,26.30
2018-03-26T07:32:19.553Z,25.80
2018-03-26T07:34:51.785Z,26.50
2018-03-26T07:37:23.080Z,26.30
2018-03-26T07:40:02.010Z,31.27
2018-03-26T07:42:33.972Z,27.33
2018-03-26T07:45:05.243Z,26.60
2018-03-26T07:47:36.545Z,25.17
2018-03-26T07:50:08.053Z,28.37
2018-03-26T07:52:39.284Z,27.43
2018-03-26T07:55:10.534Z,26.57
2018-03-26T07:57:41.974Z,26.03
2018-03-26T08:00:13.437Z,28.33
2018-03-26T08:02:44.925Z,28.00
2018-03-26T08:05:16.145Z,28.23
2018-03-26T08:07:47.411Z,28.70
2018-03-26T08:10:19.424Z,23.27
2018-03-26T08:12:50.667Z,28.23
2018-03-26T08:15:21.979Z,28.40
2018-03-26T08:17:53.336Z,26.97
2018-03-26T08:20:24.668Z,26.93
2018-03-26T08:22:56.705Z,25.63
2018-03-26T08:25:28.786Z,26.93
2018-03-26T08:28:00.088Z,30.27
2018-03-26T08:30:31.403Z,32.63
2018-03-26T08:33:02.647Z,27.97
2018-03-26T08:35:34.022Z,31.07
2018-03-26T08:38:06.918Z,33.90
2018-03-26T08:40:40.091Z,27.73
2018-03-26T08:43:11.832Z,29.17
2018-03-26T08:45:45.061Z,29.60
2018-03-26T08:48:16.468Z,29.97
2018-03-26T08:50:49.531Z,29.53
2018-03-26T08:53:23.095Z,29.83
2018-03-26T08:55:52.978Z,31.03
2018-03-26T08:58:24.288Z,30.37
2018-03-26T09:00:55.575Z,30.03
2018-03-26T09:03:26.938Z,30.33
2018-03-26T09:05:58.608Z,29.83
2018-03-26T09:08:29.877Z,30.07
2018-03-26T09:11:01.436Z,31.27
2018-03-26T09:13:32.987Z,31.33
2018-03-26T09:16:04.374Z,31.17
2018-03-26T09:18:35.780Z,31.43
2018-03-26T09:21:07.245Z,33.17
2018-03-26T09:23:38.586Z,30.60
2018-03-26T09:26:10.234Z,32.67
2018-03-26T09:28:42.379Z,31.73
2018-03-26T09:31:13.717Z,27.87
2018-03-26T09:33:45.004Z,32.07
2018-03-26T09:36:17.129Z,33.83
2018-03-26T09:38:48.504Z,35.17
2018-03-26T09:41:20.519Z,34.47
2018-03-26T09:43:51.931Z,35.40
2018-03-26T09:46:23.909Z,35.47
2018-03-26T09:48:55.444Z,35.10
2018-03-26T09:51:27.479Z,34.73
2018-03-26T09:53:58.763Z,33.80
2018-03-26T09:56:30.785Z,34.23
2018-03-26T09:59:02.182Z,34.37
2018-03-26T10:01:33.429Z,35.60
2018-03-26T10:04:04.753Z,35.50
2018-03-26T10:06:36.728Z,28.50
2018-03-26T10:09:08.737Z,35.23
2018-03-26T10:11:39.952Z,33.60
2018-03-26T10:14:11.968Z,26.70
2018-03-26T10:16:43.293Z,36.90
2018-03-26T10:19:15.285Z,33.70
2018-03-26T10:21:46.463Z,35.57
2018-03-26T10:24:17.844Z,34.17
2018-03-26T10:26:50.313Z,36.00
2018-03-26T10:29:22.350Z,35.43
2018-03-26T10:31:53.595Z,35.67
2018-03-26T10:34:24.838Z,40.03
2018-03-26T10:36:56.084Z,37.80
2018-03-26T10:39:27.352Z,37.53
2018-03-26T10:41:59.009Z,36.43
2018-03-26T10:44:30.348Z,36.23
2018-03-26T10:47:04.230Z,34.87
2018-03-26T10:49:35.546Z,32.93
2018-03-26T10:52:07.683Z,36.27
2018-03-26T10:54:39.695Z,32.17
2018-03-26T10:57:11.404Z,40.87
2018-03-26T10:59:42.746Z,36.23
2018-03-26T11:02:15.203Z,36.47
2018-03-26T11:04:46.946Z,32.33
2018-03-26T11:07:18.745Z,31.83
2018-03-26T11:09:50.034Z,29.60
2018-03-26T11:12:21.339Z,26.97
2018-03-26T11:14:52.656Z,26.60
2018-03-26T11:17:23.911Z,27.93
2018-03-26T11:19:55.333Z,27.27
2018-03-26T11:22:27.612Z,27.00
2018-03-26T11:24:58.938Z,27.13
2018-03-26T11:27:30.225Z,24.33
2018-03-26T11:30:01.565Z,27.50
2018-03-26T11:32:32.815Z,25.03
2018-03-26T11:35:04.091Z,30.10
2018-03-26T11:37:36.188Z,29.67
2018-03-26T11:40:07.813Z,31.03
2018-03-26T11:42:39.878Z,27.03
2018-03-26T11:45:11.514Z,32.63
2018-03-26T11:47:42.893Z,31.07
2018-03-26T11:50:14.854Z,32.00
2018-03-26T11:52:46.222Z,30.43
2018-03-26T11:55:17.878Z,32.50
2018-03-26T11:57:49.139Z,29.23
2018-03-26T12:00:20.588Z,28.63
2018-03-26T12:02:52.097Z,30.20
2018-03-26T12:05:24.221Z,33.77
2018-03-26T12:07:56.406Z,31.50
2018-03-26T12:10:27.843Z,31.57
2018-03-26T12:12:59.678Z,31.23
2018-03-26T12:15:31.793Z,33.27
2018-03-26T12:18:03.146Z,34.27
2018-03-26T12:20:47.142Z,34.10
2018-03-26T12:23:30.918Z,29.97
2018-03-26T12:26:03.027Z,31.23
2018-03-26T12:28:46.717Z,29.97
2018-03-26T12:31:18.750Z,30.67
2018-03-26T12:34:15.019Z,27.70
2018-03-26T12:36:46.511Z,28.67
2018-03-26T12:39:17.805Z,38.47
2018-03-26T12:41:49.454Z,23.97
2018-03-26T12:44:33.832Z,22.43
2018-03-26T12:47:05.194Z,21.87
2018-03-26T12:49:36.446Z,20.47
2018-03-26T12:52:20.198Z,20.73
2018-03-26T12:54:51.444Z,19.80
2018-03-26T12:57:35.098Z,19.63
2018-03-26T13:00:06.447Z,20.67
2018-03-26T13:02:38.125Z,20.67
2018-03-26T13:05:10.167Z,20.93
2018-03-26T13:07:42.832Z,20.47
2018-03-26T13:10:14.065Z,21.00
2018-03-26T13:12:45.320Z,23.27
2018-03-26T13:15:16.619Z,20.43
2018-03-26T13:17:47.976Z,21.13
2018-03-26T13:20:19.276Z,23.43
2018-03-26T13:22:51.389Z,25.33
2018-03-26T13:25:22.996Z,24.27
2018-03-26T13:27:55.133Z,25.23
2018-03-26T13:30:26.504Z,25.07
2018-03-26T13:32:57.928Z,28.40
2018-03-26T13:35:29.470Z,26.10
2018-03-26T13:38:00.717Z,23.00
2018-03-26T13:40:31.953Z,20.80
2018-03-26T13:43:03.379Z,20.33
2018-03-26T13:45:34.675Z,19.63
2018-03-26T13:48:05.936Z,20.50
2018-03-26T13:50:37.179Z,20.57
2018-03-26T13:53:08.611Z,20.30
2018-03-26T13:55:39.919Z,20.27
2018-03-26T13:58:11.201Z,18.00
2018-03-26T14:00:42.613Z,18.17
2018-03-26T14:03:13.932Z,17.27
2018-03-26T14:05:45.236Z,16.80
2018-03-26T15:33:29.826Z,7.40
2018-03-26T15:36:01.229Z,6.87
2018-03-26T15:38:32.455Z,6.40
2018-03-26T15:41:03.842Z,7.13
2018-03-26T15:43:35.191Z,7.07
2018-03-26T15:46:06.439Z,7.70
2018-03-26T15:48:37.656Z,7.23
2018-03-26T15:51:08.979Z,7.10
2018-03-26T15:53:40.487Z,6.30
2018-03-26T15:56:11.777Z,7.67
2018-03-26T15:58:43.084Z,7.60
2018-03-26T16:01:14.396Z,7.30
2018-03-26T16:03:45.712Z,7.90
2018-03-26T16:06:17.737Z,9.67
2018-03-26T16:08:50.012Z,8.20
2018-03-26T16:11:21.322Z,8.80
2018-03-26T16:13:52.603Z,8.03
2018-03-26T16:16:24.615Z,8.03
2018-03-26T16:18:55.954Z,8.60
2018-03-26T16:21:27.910Z,9.27
2018-03-26T16:23:59.884Z,7.97
2018-03-26T16:26:31.088Z,8.17
2018-03-26T16:29:02.374Z,8.10
2018-03-26T16:31:33.671Z,11.23
2018-03-26T16:34:05.056Z,7.90
2018-03-26T16:36:36.294Z,7.73
2018-03-26T16:39:08.312Z,6.80
2018-03-26T16:41:43.519Z,8.07
2018-03-26T16:44:14.788Z,7.77
2018-03-26T16:46:46.008Z,7.70
2018-03-26T16:49:17.362Z,5.63
2018-03-26T16:51:49.168Z,7.33
2018-03-26T16:54:21.269Z,8.50
2018-03-26T16:56:52.574Z,8.07
2018-03-26T16:59:23.900Z,7.50
2018-03-26T17:01:56.109Z,7.53
2018-03-26T17:04:27.325Z,7.73
2018-03-26T17:06:58.567Z,7.20
2018-03-26T17:09:29.854Z,7.70
2018-03-26T17:12:01.226Z,10.13
2018-03-26T17:14:32.613Z,7.77
2018-03-26T17:17:04.092Z,7.60
2018-03-26T17:19:36.113Z,7.23
2018-03-26T17:22:07.422Z,7.67
2018-03-26T17:24:38.739Z,7.73
2018-03-26T17:27:10.750Z,8.03
2018-03-26T17:29:42.006Z,8.10
2018-03-26T17:32:13.431Z,7.27
2018-03-26T17:34:44.752Z,4.80
2018-03-26T17:37:16.755Z,7.63
2018-03-26T17:39:48.104Z,7.90
2018-03-26T17:42:19.364Z,7.43
2018-03-26T17:44:51.487Z,7.37
2018-03-26T17:47:22.758Z,6.97
2018-03-26T17:49:54.307Z,7.77
2018-03-26T17:52:25.746Z,8.30
2018-03-26T17:54:57.822Z,7.57
2018-03-26T17:57:29.016Z,7.97
2018-03-26T18:00:00.319Z,7.53
2018-03-26T18:02:31.789Z,8.23
2018-03-26T18:05:03.058Z,6.37
2018-03-26T18:07:35.346Z,12.47
2018-03-26T18:10:06.649Z,7.00
2018-03-26T18:12:37.993Z,7.40
2018-03-26T18:15:09.229Z,7.30
2018-03-26T18:17:41.324Z,7.33
2018-03-26T18:20:13.266Z,7.20
2018-03-26T18:22:45.265Z,6.73
2018-03-26T18:25:17.209Z,7.33
2018-03-26T18:27:49.187Z,7.03
2018-03-26T18:30:20.408Z,7.60
2018-03-26T18:32:51.770Z,8.10
2018-03-26T18:35:23.715Z,6.97
2018-03-26T18:37:54.959Z,7.10
2018-03-26T18:40:26.268Z,6.57
2018-03-26T18:42:57.501Z,7.57
2018-03-26T18:45:28.759Z,7.50
2018-03-26T18:47:59.996Z,6.90
2018-03-26T18:50:31.200Z,7.90
2018-03-26T18:53:02.500Z,7.10
2018-03-26T18:55:33.794Z,8.20
2018-03-26T18:58:05.870Z,7.30
2018-03-26T19:00:38.740Z,7.53
2018-03-26T19:03:10.124Z,7.57
2018-03-26T19:05:41.400Z,8.13
2018-03-26T19:08:12.659Z,7.97
2018-03-26T19:10:44.774Z,7.53
2018-03-26T19:13:16.538Z,8.60
2018-03-26T19:15:48.553Z,8.37
2018-03-26T19:18:19.811Z,8.97
2018-03-26T19:20:51.917Z,8.60
2018-03-26T19:23:23.220Z,8.47
2018-03-26T19:25:54.561Z,8.87
2018-03-26T19:28:25.824Z,9.30
2018-03-26T19:30:57.099Z,9.40
2018-03-26T19:33:28.458Z,8.70
2018-03-26T19:35:59.655Z,9.97
2018-03-26T19:38:30.953Z,9.33
2018-03-26T19:41:02.212Z,8.53
2018-03-26T19:43:33.859Z,9.30
2018-03-26T19:46:05.573Z,8.70
2018-03-26T19:48:36.955Z,8.50
2018-03-26T19:51:08.293Z,9.53
2018-03-26T19:53:39.788Z,8.77
2018-03-26T19:56:11.048Z,9.37
2018-03-26T19:58:42.300Z,10.10
2018-03-26T20:01:13.701Z,10.27
2018-03-26T20:03:45.349Z,9.77
2018-03-26T20:06:17.386Z,10.03
2018-03-26T20:08:48.694Z,9.70
2018-03-26T20:11:20.107Z,9.70
2018-03-26T20:13:51.471Z,9.97
2018-03-26T20:16:23.696Z,10.57
2018-03-26T20:18:54.940Z,8.70
2018-03-26T20:21:26.234Z,8.70
2018-03-26T20:23:57.512Z,8.50
2018-03-26T20:26:28.784Z,10.10
2018-03-26T20:29:00.092Z,11.13
2018-03-26T20:31:31.568Z,9.30
2018-03-26T20:34:03.014Z,9.47
2018-03-26T20:36:34.465Z,10.57
2018-03-26T20:39:05.724Z,15.97
2018-03-26T20:41:37.768Z,11.10
2018-03-26T20:44:09.060Z,11.10
2018-03-26T20:46:41.048Z,16.17
2018-03-26T20:49:12.310Z,11.63
2018-03-26T20:51:43.571Z,11.03
2018-03-26T20:54:14.968Z,7.53
2018-03-26T20:56:46.974Z,10.60
2018-03-26T20:59:18.330Z,7.13
2018-03-26T21:01:50.537Z,8.23
2018-03-26T21:04:22.566Z,9.83
2018-03-26T21:06:53.863Z,9.23
2018-03-26T21:09:25.869Z,9.67
2018-03-26T21:11:57.194Z,9.10
2018-03-26T21:14:28.459Z,7.87
2018-03-26T21:16:59.677Z,8.40
2018-03-26T21:19:30.994Z,9.30
2018-03-26T21:22:03.222Z,9.67
2018-03-26T21:24:34.472Z,8.70
2018-03-26T21:27:05.770Z,8.33
2018-03-26T21:29:37.027Z,9.20
2018-03-26T21:32:08.303Z,8.40
2018-03-26T21:34:39.834Z,9.40
2018-03-26T21:37:11.121Z,9.97
2018-03-26T21:39:42.399Z,9.87
2018-03-26T21:42:13.987Z,10.40
2018-03-26T21:44:45.241Z,9.53
2018-03-26T21:47:16.538Z,9.53
2018-03-26T21:49:47.825Z,9.27
2018-03-26T21:52:19.098Z,9.87
2018-03-26T21:54:50.441Z,8.50
2018-03-26T21:57:21.737Z,8.33
2018-03-26T21:59:52.954Z,8.80
2018-03-26T22:02:24.228Z,8.87
2018-03-26T22:04:55.540Z,9.17
2018-03-26T23:29:28.808Z,6.53
2018-03-26T23:32:00.121Z,6.37
2018-03-26T23:34:31.406Z,6.03
2018-03-26T23:37:03.560Z,7.13
2018-03-26T23:39:34.845Z,6.57
2018-03-26T23:42:06.862Z,6.93
2018-03-26T23:44:38.123Z,6.53
2018-03-26T23:47:09.444Z,7.23
2018-03-26T23:49:40.705Z,7.07
2018-03-26T23:52:12.035Z,6.77
2018-03-26T23:54:43.284Z,6.83
2018-03-26T23:57:14.564Z,7.27
2018-03-26T23:59:47.715Z,6.17
